Time;durP1;ratioP1;P1;durP2;ratioP2;P2;SDS_P1;SDS_P2;PMS_P1;PMS_P2;Temp;Humidity;BMP_temperature;BMP_pressure;BME280_temperature;BME280_humidity;BME280_pressure;Samples;Min_cycle;Max_cycle;Signal;HPM_P1;HPM_P2
2023/10/27 00:02:08;;;;;;;;;;;;;;;-1.64;68.74;99363.94;4885721;29;19924;-75
2023/10/27 00:04:36;;;;;;;;;;;;;;;-1.85;69.19;99332.66;4894212;29;19924;-75
2023/10/27 00:07:05;;;;;;;;;;;;;;;-1.76;68.84;99367.81;4898215;29;19939;-75
2023/10/27 00:09:33;;;;;;;;;;;;;;;-1.70;69.78;99362.91;4881148;29;19908;-73
2023/10/27 00:11:59;;;;;;;;;;;;;;;-1.62;69.26;99349.56;4886319;29;19971;-72
2023/10/27 00:14:27;;;;;;;;;;;;;;;-1.59;69.21;99349.66;4882817;29;19923;-75
2023/10/27 00:16:54;;;;;;;;;;;;;;;-1.57;69.00;99345.47;4897324;29;19931;-74
2023/10/27 00:19:23;;;;;;;;;;;;;;;-1.61;69.17;99336.84;4885992;29;19954;-75
2023/10/27 00:21:49;;;;;;;;;;;;;;;-1.62;69.09;99337.66;4898337;29;20333;-75
2023/10/27 00:24:14;;;;;;;;;;;;;;;-1.63;69.54;99329.97;4913547;29;19951;-77
2023/10/27 00:26:40;;;;;;;;;;;;;;;-1.74;68.84;99324.50;4899452;29;19944;-76
2023/10/27 00:29:07;;;;;;;;;;;;;;;-1.79;68.67;99324.38;4903419;29;19922;-75
2023/10/27 00:31:33;;;;;;;;;;;;;;;-1.82;69.78;99320.00;4899473;29;19927;-74
2023/10/27 00:33:59;;;;;;;;;;;;;;;-1.82;69.27;99314.91;4890627;29;19959;-75
2023/10/27 00:36:25;;;;;;;;;;;;;;;-1.92;69.57;99323.09;4893122;29;19927;-77
2023/10/27 00:38:51;;;;;;;;;;;;;;;-1.92;70.31;99333.28;4920547;29;19970;-75
2023/10/27 00:41:17;;;;;;;;;;;;;;;-1.86;70.67;99318.16;4905773;29;19923;-76
2023/10/27 00:43:43;;;;;;;;;;;;;;;-1.75;70.49;99320.22;4891688;29;19923;-76
2023/10/27 00:46:09;;;;;;;;;;;;;;;-1.77;70.14;99307.44;4891902;29;19931;-76
2023/10/27 00:48:36;;;;;;;;;;;;;;;-1.78;70.35;99302.25;4903644;29;20713;-76
2023/10/27 00:51:05;;;;;;;;;;;;;;;-1.84;69.59;99313.97;4906959;29;19934;-76
2023/10/27 00:53:38;;;;;;;;;;;;;;;-1.83;70.79;99295.31;4900514;29;19943;-76
2023/10/27 00:56:10;;;;;;;;;;;;;;;-1.78;70.98;99307.34;4887463;29;19958;-81
2023/10/27 00:58:38;;;;;;;;;;;;;;;-1.56;71.19;99297.03;4924050;29;19969;-77
2023/10/27 01:01:05;;;;;;;;;;;;;;;-1.59;69.32;99296.94;4875139;29;19924;-76
2023/10/27 01:03:31;;;;;;;;;;;;;;;-1.67;69.55;99293.28;4904073;29;19923;-76
2023/10/27 01:05:57;;;;;;;;;;;;;;;-1.68;69.77;99289.00;4919519;29;19934;-78
2023/10/27 01:08:24;;;;;;;;;;;;;;;-1.75;70.25;99285.34;4908446;29;19934;-77
2023/10/27 01:10:53;;;;;;;;;;;;;;;-1.65;70.09;99299.28;4907647;29;20017;-78
2023/10/27 01:13:19;;;;;;;;;;;;;;;-1.69;69.95;99284.72;4890386;29;19931;-77
2023/10/27 01:15:45;;;;;;;;;;;;;;;-1.67;70.12;99283.94;4892107;29;19985;-76
2023/10/27 01:18:11;;;;;;;;;;;;;;;-1.63;70.62;99299.34;4877111;29;19923;-76
2023/10/27 01:20:39;;;;;;;;;;;;;;;-1.75;70.06;99280.25;4891316;29;20362;-77
2023/10/27 01:23:08;;;;;;;;;;;;;;;-1.68;70.87;99274.53;4903726;29;19934;-76
2023/10/27 01:25:34;;;;;;;;;;;;;;;-1.67;69.96;99265.22;4906804;29;19951;-78
2023/10/27 01:28:06;;;;;;;;;;;;;;;-1.69;70.10;99262.59;4905759;29;19995;-76
2023/10/27 01:30:33;;;;;;;;;;;;;;;-1.76;70.45;99268.31;4875598;29;19927;-75
2023/10/27 01:33:01;;;;;;;;;;;;;;;-1.72;70.33;99274.41;4905726;29;20017;-76
2023/10/27 01:35:28;;;;;;;;;;;;;;;-1.67;71.19;99258.41;4889746;29;19923;-77
2023/10/27 01:37:54;;;;;;;;;;;;;;;-1.69;70.56;99251.53;4884616;29;20003;-76
2023/10/27 01:40:20;;;;;;;;;;;;;;;-1.53;70.55;99251.19;4891669;29;19930;-77
2023/10/27 01:42:47;;;;;;;;;;;;;;;-1.51;70.51;99253.78;4899763;29;19959;-78
2023/10/27 01:45:14;;;;;;;;;;;;;;;-1.54;70.51;99248.56;4891106;29;19923;-76
2023/10/27 01:47:43;;;;;;;;;;;;;;;-1.61;69.99;99239.88;4891784;29;19927;-75
2023/10/27 01:50:09;;;;;;;;;;;;;;;-1.55;70.60;99236.66;4900792;29;19971;-77
2023/10/27 01:52:38;;;;;;;;;;;;;;;-1.52;70.33;99237.63;4902298;29;19928;-75
2023/10/27 01:55:07;;;;;;;;;;;;;;;-1.54;70.22;99240.91;4876947;29;19966;-81
2023/10/27 01:57:36;;;;;;;;;;;;;;;-1.61;69.55;99231.38;4906911;29;19979;-78
2023/10/27 02:00:03;;;;;;;;;;;;;;;-1.55;70.27;99234.09;4904206;29;19946;-76
2023/10/27 02:02:38;;;;;;;;;;;;;;;-1.48;70.83;99222.41;4908569;29;19982;-75
2023/10/27 02:05:05;;;;;;;;;;;;;;;-1.50;69.74;99221.47;4888937;29;19931;-77
2023/10/27 02:07:33;;;;;;;;;;;;;;;-1.55;70.20;99229.00;4887517;29;19931;-76
2023/10/27 02:10:02;;;;;;;;;;;;;;;-1.55;70.57;99206.88;4906553;29;19923;-75
2023/10/27 02:12:29;;;;;;;;;;;;;;;-1.49;70.76;99213.84;4890373;29;19971;-76
2023/10/27 02:14:55;;;;;;;;;;;;;;;-1.53;70.10;99214.56;4906642;29;19922;-76
2023/10/27 02:17:21;;;;;;;;;;;;;;;-1.50;71.28;99199.38;4895748;29;20036;-78
2023/10/27 02:19:54;;;;;;;;;;;;;;;-1.50;70.01;99198.50;4918349;29;19923;-77
2023/10/27 02:22:28;;;;;;;;;;;;;;;-1.55;70.83;99189.03;4903785;29;19934;-78
2023/10/27 02:24:56;;;;;;;;;;;;;;;-1.53;71.14;99200.16;4897350;29;19927;-76
2023/10/27 02:27:21;;;;;;;;;;;;;;;-1.55;70.56;99206.03;4905459;29;19927;-77
2023/10/27 02:29:47;;;;;;;;;;;;;;;-1.59;70.43;99197.41;4891039;29;19923;-77
2023/10/27 02:32:13;;;;;;;;;;;;;;;-1.50;71.07;99195.97;4902649;29;19943;-76
2023/10/27 02:34:39;;;;;;;;;;;;;;;-1.35;71.13;99186.19;4902138;29;19930;-71
2023/10/27 02:37:06;;;;;;;;;;;;;;;-1.38;70.46;99181.00;4903706;29;19928;-71
2023/10/27 02:39:32;;;;;;;;;;;;;;;-1.42;70.65;99187.72;4889563;29;19930;-69
2023/10/27 02:42:01;;;;;;;;;;;;;;;-1.45;70.81;99186.75;4916270;29;19923;-71
2023/10/27 02:44:27;;;;;;;;;;;;;;;-1.54;70.41;99172.91;4887195;29;19923;-71
2023/10/27 02:46:52;;;;;;;;;;;;;;;-1.45;71.00;99168.91;4889244;29;19931;-70
2023/10/27 02:49:18;;;;;;;;;;;;;;;-1.42;71.03;99171.50;4896915;29;19923;-71
2023/10/27 02:51:44;;;;;;;;;;;;;;;-1.55;70.85;99181.38;4887782;29;19923;-72
2023/10/27 02:54:10;;;;;;;;;;;;;;;-1.59;70.49;99178.69;4885034;29;19946;-71
2023/10/27 02:56:36;;;;;;;;;;;;;;;-1.55;70.73;99173.72;4914633;29;20346;-71
2023/10/27 02:59:05;;;;;;;;;;;;;;;-1.61;70.65;99172.66;4887312;29;20297;-71
2023/10/27 03:01:31;;;;;;;;;;;;;;;-1.64;70.69;99175.97;4913524;29;19930;-72
2023/10/27 03:03:57;;;;;;;;;;;;;;;-1.59;70.68;99166.78;4901568;29;19923;-74
2023/10/27 03:06:24;;;;;;;;;;;;;;;-1.62;71.39;99165.84;4887714;29;19999;-74
2023/10/27 03:08:52;;;;;;;;;;;;;;;-1.55;71.21;99155.00;4904420;29;19934;-73
2023/10/27 03:11:19;;;;;;;;;;;;;;;-1.47;71.50;99161.19;4900496;29;19923;-72
2023/10/27 03:13:45;;;;;;;;;;;;;;;-1.37;71.55;99154.66;4915261;29;19927;-73
2023/10/27 03:16:11;;;;;;;;;;;;;;;-1.33;71.33;99146.25;4917610;29;19929;-72
2023/10/27 03:18:36;;;;;;;;;;;;;;;-1.45;70.27;99145.94;4884204;29;19927;-72
2023/10/27 03:21:05;;;;;;;;;;;;;;;-1.39;70.87;99146.97;4887202;29;20050;-73
2023/10/27 03:23:34;;;;;;;;;;;;;;;-1.46;70.62;99139.94;4902965;29;20304;-73
2023/10/27 03:26:03;;;;;;;;;;;;;;;-1.43;70.50;99142.59;4887584;29;19930;-73
2023/10/27 03:28:29;;;;;;;;;;;;;;;-1.40;70.68;99136.69;4911444;29;19979;-73
2023/10/27 03:30:55;;;;;;;;;;;;;;;-1.28;71.33;99142.16;4890786;29;19923;-73
2023/10/27 03:33:24;;;;;;;;;;;;;;;-1.19;71.10;99148.31;4914366;29;20019;-72
2023/10/27 03:35:49;;;;;;;;;;;;;;;-1.26;70.88;99143.06;4915514;29;19986;-72
2023/10/27 03:38:21;;;;;;;;;;;;;;;-1.32;71.56;99147.16;4913597;29;20301;-71
2023/10/27 03:40:48;;;;;;;;;;;;;;;-1.33;71.11;99156.47;4880993;29;19990;-71
2023/10/27 03:43:15;;;;;;;;;;;;;;;-1.38;70.64;99161.47;4897582;29;19986;-71
2023/10/27 03:45:41;;;;;;;;;;;;;;;-1.27;71.91;99163.44;4887430;29;20426;-73
2023/10/27 03:48:07;;;;;;;;;;;;;;;-1.29;70.39;99149.75;4887799;29;20030;-73
2023/10/27 03:50:36;;;;;;;;;;;;;;;-1.29;71.07;99150.63;4886516;29;20018;-73
2023/10/27 03:53:02;;;;;;;;;;;;;;;-1.29;70.78;99142.97;4899790;29;19939;-71
2023/10/27 03:55:28;;;;;;;;;;;;;;;-1.18;71.18;99127.09;4873983;29;19923;-72
2023/10/27 03:58:11;;;;;;;;;;;;;;;-1.21;70.23;99115.94;4901542;29;19950;-72
2023/10/27 04:00:37;;;;;;;;;;;;;;;-1.25;70.74;99110.72;4887230;29;19927;-72
2023/10/27 04:03:04;;;;;;;;;;;;;;;-1.30;71.19;99102.97;4914755;29;20260;-72
2023/10/27 04:05:30;;;;;;;;;;;;;;;-1.36;70.21;99102.78;4869535;29;20017;-71
2023/10/27 04:07:59;;;;;;;;;;;;;;;-1.32;71.27;99102.03;4885900;29;19998;-72
2023/10/27 04:10:25;;;;;;;;;;;;;;;-1.32;70.68;99089.28;4918400;29;19946;-73
2023/10/27 04:12:54;;;;;;;;;;;;;;;-1.24;71.33;99090.38;4883951;29;20018;-73
2023/10/27 04:15:21;;;;;;;;;;;;;;;-1.25;71.05;99080.97;4868255;29;19923;-73
2023/10/27 04:17:47;;;;;;;;;;;;;;;-1.24;71.44;99077.59;4896158;29;19924;-73
2023/10/27 04:20:16;;;;;;;;;;;;;;;-1.21;71.57;99075.09;4882863;29;19928;-72
2023/10/27 04:22:45;;;;;;;;;;;;;;;-1.16;71.49;99082.03;4865660;29;20479;-74
2023/10/27 04:25:12;;;;;;;;;;;;;;;-1.11;70.89;99083.91;4869177;29;19924;-73
2023/10/27 04:27:38;;;;;;;;;;;;;;;-1.21;70.85;99070.00;4883443;29;19943;-73
2023/10/27 04:30:07;;;;;;;;;;;;;;;-1.13;71.23;99069.34;4868798;29;20022;-73
2023/10/27 04:32:34;;;;;;;;;;;;;;;-1.28;70.66;99063.00;4883668;29;19923;-74
2023/10/27 04:35:01;;;;;;;;;;;;;;;-1.27;71.26;99063.88;4879418;29;19930;-74
2023/10/27 04:37:30;;;;;;;;;;;;;;;-1.19;70.46;99066.63;4880837;29;19996;-74
2023/10/27 04:39:56;;;;;;;;;;;;;;;-1.05;70.96;99055.09;4882824;29;19990;-72
2023/10/27 04:42:23;;;;;;;;;;;;;;;-0.94;70.80;99052.81;4879533;29;19924;-73
2023/10/27 04:44:49;;;;;;;;;;;;;;;-0.97;71.64;99056.13;4882127;29;20424;-73
2023/10/27 04:47:15;;;;;;;;;;;;;;;-1.01;70.67;99049.25;4882093;29;19956;-74
2023/10/27 04:49:43;;;;;;;;;;;;;;;-1.03;70.92;99053.44;4866295;29;19979;-74
2023/10/27 04:52:09;;;;;;;;;;;;;;;-1.15;70.56;99054.00;4863394;29;19960;-75
2023/10/27 04:54:35;;;;;;;;;;;;;;;-1.01;71.37;99053.47;4882733;29;19928;-74
2023/10/27 04:57:05;;;;;;;;;;;;;;;-1.03;71.73;99058.56;4888938;29;19924;-74
2023/10/27 04:59:32;;;;;;;;;;;;;;;-0.91;70.90;99058.88;4861189;29;19930;-74
2023/10/27 05:01:58;;;;;;;;;;;;;;;-0.83;71.55;99055.66;4882404;29;20389;-74
2023/10/27 05:04:27;;;;;;;;;;;;;;;-0.84;71.27;99059.03;4881286;29;19970;-74
2023/10/27 05:06:53;;;;;;;;;;;;;;;-0.96;70.96;99041.69;4884045;29;19967;-73
2023/10/27 05:09:19;;;;;;;;;;;;;;;-0.91;70.89;99040.97;4881704;29;20410;-75
2023/10/27 05:11:50;;;;;;;;;;;;;;;-1.00;70.49;99040.75;4881355;29;19928;-74
2023/10/27 05:14:16;;;;;;;;;;;;;;;-1.09;70.91;99041.38;4900297;29;19932;-73
2023/10/27 05:16:42;;;;;;;;;;;;;;;-1.03;71.35;99048.34;4882849;29;19923;-73
2023/10/27 05:19:12;;;;;;;;;;;;;;;-0.95;71.33;99030.66;4899091;29;19923;-74
2023/10/27 05:21:42;;;;;;;;;;;;;;;-1.02;70.96;99019.44;4901364;29;19923;-74
2023/10/27 05:24:09;;;;;;;;;;;;;;;-0.89;71.76;99024.81;4897658;29;19923;-72
2023/10/27 05:26:37;;;;;;;;;;;;;;;-1.04;70.41;99025.31;4902285;29;19927;-72
2023/10/27 05:29:06;;;;;;;;;;;;;;;-0.93;71.50;99029.00;4886480;29;19931;-71
2023/10/27 05:31:34;;;;;;;;;;;;;;;-0.95;71.32;99025.53;4871342;29;19924;-72
2023/10/27 05:34:01;;;;;;;;;;;;;;;-0.86;71.66;99017.25;4882321;29;19923;-71
2023/10/27 05:36:27;;;;;;;;;;;;;;;-0.83;71.66;99025.00;4883648;29;19966;-71
2023/10/27 05:38:53;;;;;;;;;;;;;;;-0.80;70.71;99019.97;4903132;29;19927;-71
2023/10/27 05:41:22;;;;;;;;;;;;;;;-0.66;71.51;99022.84;4897282;29;19923;-71
2023/10/27 05:43:50;;;;;;;;;;;;;;;-0.70;71.21;99008.25;4885555;29;20389;-71
2023/10/27 05:46:19;;;;;;;;;;;;;;;-0.71;70.81;98996.31;4886120;29;19969;-71
2023/10/27 05:48:45;;;;;;;;;;;;;;;-0.72;70.79;98998.00;4901382;29;19966;-74
2023/10/27 05:51:11;;;;;;;;;;;;;;;-0.62;71.59;98993.97;4887947;29;20010;-75
2023/10/27 05:53:37;;;;;;;;;;;;;;;-0.57;70.46;98994.09;4884707;29;19962;-75
2023/10/27 05:56:07;;;;;;;;;;;;;;;-0.73;70.32;99000.53;4914070;29;20023;-79
2023/10/27 05:58:33;;;;;;;;;;;;;;;-0.79;70.80;99007.22;4902628;29;19966;-79
2023/10/27 06:00:59;;;;;;;;;;;;;;;-0.62;71.10;99006.72;4906779;29;19930;-75
2023/10/27 06:03:26;;;;;;;;;;;;;;;-0.62;70.84;99012.72;4891340;29;19928;-76
2023/10/27 06:05:53;;;;;;;;;;;;;;;-0.69;69.91;99013.41;4904288;29;19923;-76
2023/10/27 06:08:19;;;;;;;;;;;;;;;-0.65;70.21;99007.53;4904100;29;19928;-77
2023/10/27 06:10:48;;;;;;;;;;;;;;;-0.59;70.77;98998.28;4899073;29;19924;-75
2023/10/27 06:13:14;;;;;;;;;;;;;;;-0.47;70.16;98990.91;4885450;29;19998;-80
2023/10/27 06:15:41;;;;;;;;;;;;;;;-0.49;70.69;98990.88;4897594;29;19930;-77
2023/10/27 06:18:07;;;;;;;;;;;;;;;-0.49;69.81;98988.31;4898484;29;19927;-77
2023/10/27 06:20:33;;;;;;;;;;;;;;;-0.53;69.64;98999.28;4901061;29;19923;-81
2023/10/27 06:23:13;;;;;;;;;;;;;;;-0.47;70.51;98979.00;4892439;29;19934;-80
2023/10/27 06:25:39;;;;;;;;;;;;;;;-0.54;69.61;98978.78;4905542;29;19930;-79
2023/10/27 06:28:05;;;;;;;;;;;;;;;-0.59;70.24;98978.69;4872639;29;19938;-79
2023/10/27 06:30:32;;;;;;;;;;;;;;;-0.58;70.63;98971.91;4898270;29;19923;-75
2023/10/27 06:32:57;;;;;;;;;;;;;;;-0.67;70.20;98963.19;4886796;29;19985;-75
2023/10/27 06:35:32;;;;;;;;;;;;;;;-0.68;70.25;98956.34;4889261;29;19923;-76
2023/10/27 06:38:01;;;;;;;;;;;;;;;-0.76;70.49;98953.63;4902502;29;19927;-77
2023/10/27 06:40:26;;;;;;;;;;;;;;;-0.62;70.91;98951.38;4884097;29;19928;-76
2023/10/27 06:42:55;;;;;;;;;;;;;;;-0.56;70.86;98950.66;4901721;29;19934;-77
2023/10/27 06:45:21;;;;;;;;;;;;;;;-0.41;70.96;98947.59;4885467;29;19924;-76
2023/10/27 06:47:48;;;;;;;;;;;;;;;-0.43;69.98;98941.56;4900481;29;19951;-76
2023/10/27 06:50:14;;;;;;;;;;;;;;;-0.36;70.61;98955.34;4901769;29;19970;-76
2023/10/27 06:52:41;;;;;;;;;;;;;;;-0.47;70.09;98943.22;4903154;29;19928;-75
2023/10/27 06:55:09;;;;;;;;;;;;;;;-0.35;71.33;98942.59;4912465;29;19923;-74
2023/10/27 06:57:39;;;;;;;;;;;;;;;-0.29;71.07;98930.75;4878781;29;19923;-76
2023/10/27 07:00:08;;;;;;;;;;;;;;;-0.22;70.55;98927.50;4884479;29;20026;-76
2023/10/27 07:02:37;;;;;;;;;;;;;;;-0.14;70.02;98927.66;4896475;29;20066;-73
2023/10/27 07:05:05;;;;;;;;;;;;;;;-0.16;70.53;98941.28;4911706;29;19923;-74
2023/10/27 07:07:34;;;;;;;;;;;;;;;-0.26;69.42;98935.94;4886560;29;20318;-73
2023/10/27 07:10:01;;;;;;;;;;;;;;;-0.18;70.27;98934.41;4901609;29;20258;-77
2023/10/27 07:15:28;;;;;;;;;;;;;;;-0.28;70.03;98929.94;4915278;29;19928;-73
2023/10/27 07:17:56;;;;;;;;;;;;;;;-0.22;69.88;98925.81;4904886;29;19923;-75
2023/10/27 07:20:22;;;;;;;;;;;;;;;-0.05;71.13;98936.38;4901955;29;20030;-74
2023/10/27 07:22:50;;;;;;;;;;;;;;;-0.07;69.92;98935.47;4904891;29;19927;-71
2023/10/27 07:25:16;;;;;;;;;;;;;;;-0.12;70.18;98944.78;4904820;29;19966;-76
2023/10/27 07:27:48;;;;;;;;;;;;;;;-0.13;70.16;98934.50;4891263;29;19928;-76
2023/10/27 07:30:17;;;;;;;;;;;;;;;-0.20;69.65;98930.97;4905026;29;19952;-70
2023/10/27 07:32:44;;;;;;;;;;;;;;;-0.18;70.01;98934.41;4899948;29;19931;-70
2023/10/27 07:35:09;;;;;;;;;;;;;;;-0.09;69.17;98928.63;4877426;29;19923;-69
2023/10/27 07:37:36;;;;;;;;;;;;;;;-0.03;70.57;98933.88;4899948;29;19938;-69
2023/10/27 07:40:10;;;;;;;;;;;;;;;0.02;70.33;98933.97;4881814;29;19947;-71
2023/10/27 07:42:36;;;;;;;;;;;;;;;0.07;70.12;98932.34;4901651;29;19986;-69
2023/10/27 07:45:04;;;;;;;;;;;;;;;0.13;69.78;98929.91;4901410;29;19962;-70
2023/10/27 07:47:35;;;;;;;;;;;;;;;0.28;69.90;98930.22;4868481;29;19937;-69
2023/10/27 07:50:05;;;;;;;;;;;;;;;0.19;69.88;98930.03;4883167;29;19954;-68
2023/10/27 07:52:50;;;;;;;;;;;;;;;0.18;69.40;98919.78;4899526;29;19954;-69
2023/10/27 07:55:18;;;;;;;;;;;;;;;0.28;69.47;98919.97;4901198;29;19932;-71
2023/10/27 07:57:48;;;;;;;;;;;;;;;0.52;69.97;98922.94;4900763;29;19934;-70
2023/10/27 08:00:15;;;;;;;;;;;;;;;0.62;69.54;98926.50;4901210;29;19928;-70
2023/10/27 08:02:43;;;;;;;;;;;;;;;0.53;68.84;98915.28;4912621;29;19934;-71
2023/10/27 08:05:12;;;;;;;;;;;;;;;0.63;69.04;98925.69;4902031;29;19928;-71
2023/10/27 08:07:40;;;;;;;;;;;;;;;0.54;68.82;98919.59;4897505;29;19928;-68
2023/10/27 08:10:09;;;;;;;;;;;;;;;0.51;68.71;98905.84;4901606;29;19923;-68
2023/10/27 08:12:37;;;;;;;;;;;;;;;0.62;69.37;98898.34;4897911;29;19935;-70
2023/10/27 08:15:06;;;;;;;;;;;;;;;0.62;68.44;98893.22;4898297;29;20006;-70
2023/10/27 08:17:40;;;;;;;;;;;;;;;0.78;69.77;98900.31;4885940;29;19977;-70
2023/10/27 08:20:10;;;;;;;;;;;;;;;0.77;69.02;98911.44;4913291;29;19995;-67
2023/10/27 08:22:47;;;;;;;;;;;;;;;0.73;68.71;98897.69;4898296;29;19923;-71
2023/10/27 08:25:12;;;;;;;;;;;;;;;0.61;68.92;98907.75;4898833;29;19947;-70
2023/10/27 08:27:40;;;;;;;;;;;;;;;0.48;68.13;98896.44;4895760;29;19991;-66
2023/10/27 08:30:15;;;;;;;;;;;;;;;0.48;68.57;98903.22;4902936;29;19928;-69
2023/10/27 08:32:44;;;;;;;;;;;;;;;0.52;68.65;98902.44;4897629;29;19957;-71
2023/10/27 08:35:10;;;;;;;;;;;;;;;0.46;68.54;98898.09;4902696;29;20018;-74
2023/10/27 08:37:41;;;;;;;;;;;;;;;0.45;68.42;98886.13;4889450;29;19943;-78
2023/10/27 08:40:13;;;;;;;;;;;;;;;0.42;69.04;98886.06;4905711;29;19928;-78
2023/10/27 08:43:05;;;;;;;;;;;;;;;0.39;68.31;98883.44;4890626;29;20421;-75
2023/10/27 08:45:32;;;;;;;;;;;;;;;0.44;67.87;98874.16;4891145;29;19987;-72
2023/10/27 08:48:21;;;;;;;;;;;;;;;0.47;68.16;98861.41;4890619;29;20033;-70
2023/10/27 08:50:55;;;;;;;;;;;;;;;0.68;69.46;98862.59;4907391;29;19952;-70
2023/10/27 08:53:31;;;;;;;;;;;;;;;0.62;68.29;98854.81;4875303;29;19951;-69
2023/10/27 08:55:58;;;;;;;;;;;;;;;0.86;69.17;98852.63;4886766;29;19924;-70
2023/10/27 08:58:24;;;;;;;;;;;;;;;1.00;68.71;98857.97;4903590;29;19923;-71
2023/10/27 09:00:59;;;;;;;;;;;;;;;1.15;68.51;98853.91;4892933;29;19971;-69
2023/10/27 09:03:25;;;;;;;;;;;;;;;1.19;68.07;98859.09;4904066;29;19923;-71
2023/10/27 09:06:02;;;;;;;;;;;;;;;1.26;67.75;98869.41;4903885;29;19923;-71
2023/10/27 09:08:28;;;;;;;;;;;;;;;1.16;67.32;98863.31;4889383;29;19928;-73
2023/10/27 09:11:02;;;;;;;;;;;;;;;1.08;66.80;98863.22;4875796;29;19923;-72
2023/10/27 09:13:37;;;;;;;;;;;;;;;1.13;67.24;98874.38;4888978;29;19932;-73
2023/10/27 09:16:28;;;;;;;;;;;;;;;1.16;67.44;98864.19;4871532;23;19932;-74
2023/10/27 09:19:02;;;;;;;;;;;;;;;1.10;67.65;98865.81;4849006;29;19939;-69
2023/10/27 09:24:35;;;;;;;;;;;;;;;1.19;68.28;98858.22;4871038;29;19948;-78
2023/10/27 09:27:09;;;;;;;;;;;;;;;1.31;67.41;98860.97;4859359;29;19932;-74
2023/10/27 09:29:42;;;;;;;;;;;;;;;1.25;66.75;98858.31;4873009;29;19928;-76
2023/10/27 09:32:25;;;;;;;;;;;;;;;1.24;66.74;98846.34;4864594;29;19904;-77
2023/10/27 09:35:13;;;;;;;;;;;;;;;1.14;67.14;98852.16;4856509;29;19924;-75
2023/10/27 09:37:49;;;;;;;;;;;;;;;1.06;67.68;98846.94;4854995;29;19928;-78
2023/10/27 09:40:28;;;;;;;;;;;;;;;1.22;68.01;98847.16;4858953;29;19934;-75
2023/10/27 09:42:58;;;;;;;;;;;;;;;1.30;67.67;98832.75;4854029;29;19928;-73
2023/10/27 09:45:27;;;;;;;;;;;;;;;1.40;67.35;98841.41;4866988;29;19931;-72
2023/10/27 09:48:04;;;;;;;;;;;;;;;1.47;67.54;98840.66;4845773;29;19928;-71
2023/10/27 09:50:33;;;;;;;;;;;;;;;1.33;66.77;98837.91;4869559;29;20031;-71
2023/10/27 09:53:05;;;;;;;;;;;;;;;1.37;67.32;98837.13;4838853;29;19910;-73
2023/10/27 09:55:36;;;;;;;;;;;;;;;1.28;66.29;98835.31;4870971;29;19930;-77
2023/10/27 09:58:05;;;;;;;;;;;;;;;1.32;66.92;98831.94;4869529;29;19911;-75
2023/10/27 10:00:35;;;;;;;;;;;;;;;1.27;66.67;98828.44;4855642;29;19924;-73
2023/10/27 10:03:11;;;;;;;;;;;;;;;;;;;;;
2023/10/27 10:09:11;;;;;;;;;;;;;;;0.87;66.48;98825.34;4859375;29;19928;-70
2023/10/27 10:11:49;;;;;;;;;;;;;;;0.78;66.14;98826.03;4837796;29;19946;-72
2023/10/27 10:14:34;;;;;;;;;;;;;;;0.85;67.01;98832.13;4852771;29;19996;-69
2023/10/27 10:17:00;;;;;;;;;;;;;;;1.06;66.76;98831.56;4849976;29;19953;-71
2023/10/27 10:19:55;;;;;;;;;;;;;;;;;;;;;
2023/10/27 10:23:02;;;;;;;;;;;;;;;0.88;67.57;98834.75;4866417;29;20001;-80
2023/10/27 10:25:51;;;;;;;;;;;;;;;0.80;67.57;98820.94;4811081;29;19909;-74
2023/10/27 10:28:19;;;;;;;;;;;;;;;1.08;68.09;98819.66;4835105;29;19932;-70
2023/10/27 10:31:17;;;;;;;;;;;;;;;1.10;66.51;98812.84;4866558;29;19924;-77
2023/10/27 10:33:55;;;;;;;;;;;;;;;0.86;66.67;98814.22;4759562;30;19926;-72
2023/10/27 10:36:27;;;;;;;;;;;;;;;0.73;67.18;98810.59;4762094;30;20488;-73
2023/10/27 10:38:58;;;;;;;;;;;;;;;0.79;67.18;98799.59;4843415;29;19925;-73
2023/10/27 10:41:43;;;;;;;;;;;;;;;0.79;67.54;98802.16;4859755;29;19932;-71
2023/10/27 10:44:16;;;;;;;;;;;;;;;0.81;67.97;98799.63;4839865;29;19989;-71
2023/10/27 10:46:44;;;;;;;;;;;;;;;0.79;68.01;98798.75;4834174;29;20345;-72
2023/10/27 10:49:12;;;;;;;;;;;;;;;0.78;68.29;98797.03;4853664;29;19934;-70
2023/10/27 10:51:56;;;;;;;;;;;;;;;0.59;67.70;98801.88;4851240;29;19950;-73
2023/10/27 10:54:28;;;;;;;;;;;;;;;0.50;67.80;98782.09;4834724;29;19984;-73
2023/10/27 10:57:44;;;;;;;;;;;;;;;0.57;68.17;98783.91;4852851;29;19931;-76
2023/10/27 11:00:18;;;;;;;;;;;;;;;0.56;68.60;98768.53;4761753;30;19926;-74
2023/10/27 11:02:47;;;;;;;;;;;;;;;0.69;68.82;98774.69;4776457;29;19926;-73
2023/10/27 11:05:32;;;;;;;;;;;;;;;0.84;69.03;98769.78;4849935;29;19924;-75
2023/10/27 11:08:09;;;;;;;;;;;;;;;0.70;68.39;98761.06;4839277;29;20407;-71
2023/10/27 11:10:35;;;;;;;;;;;;;;;0.54;68.74;98763.41;4843568;29;19925;-75
2023/10/27 11:13:04;;;;;;;;;;;;;;;0.58;69.28;98759.19;4850515;29;19953;-75
2023/10/27 11:16:02;;;;;;;;;;;;;;;0.59;68.63;98761.75;4849732;29;19928;-75
2023/10/27 11:21:24;;;;;;;;;;;;;;;0.33;69.37;98746.00;4842678;29;19936;-71
2023/10/27 11:23:53;;;;;;;;;;;;;;;0.36;69.89;98745.19;4852619;29;19948;-73
2023/10/27 11:26:21;;;;;;;;;;;;;;;0.47;69.27;98748.78;4822175;29;19925;-75
2023/10/27 11:28:48;;;;;;;;;;;;;;;0.59;70.48;98740.41;4865239;29;19929;-75
2023/10/27 11:31:30;;;;;;;;;;;;;;;0.67;68.88;98743.09;4818381;29;19925;-71
2023/10/27 11:34:08;;;;;;;;;;;;;;;0.68;69.47;98727.72;4849744;29;19949;-71
2023/10/27 11:36:54;;;;;;;;;;;;;;;0.62;69.02;98737.03;4848617;29;19921;-73
2023/10/27 11:39:25;;;;;;;;;;;;;;;0.55;68.99;98729.25;4865256;29;19930;-71
2023/10/27 11:42:02;;;;;;;;;;;;;;;0.60;70.56;98732.75;4834933;29;20403;-76
2023/10/27 11:44:42;;;;;;;;;;;;;;;0.65;70.12;98729.41;4844219;29;19987;-78
2023/10/27 11:47:28;;;;;;;;;;;;;;;0.55;69.83;98721.56;4836232;29;19932;-75
2023/10/27 11:49:57;;;;;;;;;;;;;;;0.40;69.98;98716.25;4848795;29;20023;-74
2023/10/27 11:52:25;;;;;;;;;;;;;;;0.42;69.75;98712.88;4842387;29;20197;-73
2023/10/27 11:54:51;;;;;;;;;;;;;;;0.41;70.67;98711.16;4851820;29;19975;-75
2023/10/27 11:57:19;;;;;;;;;;;;;;;0.39;69.35;98717.06;4846578;29;19925;-73
2023/10/27 11:59:51;;;;;;;;;;;;;;;0.37;70.51;98704.28;4833658;29;19958;-73
2023/10/27 12:02:18;;;;;;;;;;;;;;;0.34;70.45;98703.34;4846112;29;19924;-75
2023/10/27 12:04:44;;;;;;;;;;;;;;;0.39;71.14;98709.41;4826554;29;20320;-71
2023/10/27 12:07:11;;;;;;;;;;;;;;;0.42;71.43;98702.66;4831886;29;19939;-73
2023/10/27 12:10:07;;;;;;;;;;;;;;;0.40;70.50;98699.19;4834450;29;19928;-72
2023/10/27 12:12:36;;;;;;;;;;;;;;;0.36;70.39;98694.00;4847712;29;19936;-70
2023/10/27 12:15:02;;;;;;;;;;;;;;;0.29;70.62;98700.72;4829839;29;19928;-72
2023/10/27 12:17:33;;;;;;;;;;;;;;;0.32;71.04;98689.69;4850859;29;19948;-72
2023/10/27 12:20:19;;;;;;;;;;;;;;;0.28;70.62;98689.63;4828813;29;19924;-74
2023/10/27 12:22:46;;;;;;;;;;;;;;;0.25;71.37;98681.03;4852671;29;19928;-77
2023/10/27 12:25:18;;;;;;;;;;;;;;;0.26;71.21;98675.06;4871983;29;19992;-75
2023/10/27 12:27:53;;;;;;;;;;;;;;;0.41;72.11;98677.00;4834848;29;19928;-70
2023/10/27 12:30:23;;;;;;;;;;;;;;;0.49;70.93;98680.53;4871800;29;19928;-71
2023/10/27 12:32:51;;;;;;;;;;;;;;;0.49;71.94;98672.88;4853847;29;19931;-72
2023/10/27 12:35:17;;;;;;;;;;;;;;;0.45;71.14;98686.44;4871540;29;19949;-72
2023/10/27 12:37:46;;;;;;;;;;;;;;;0.36;71.05;98673.50;4870279;29;19931;-71
2023/10/27 12:40:18;;;;;;;;;;;;;;;0.33;71.08;98670.94;4854905;29;19931;-72
2023/10/27 12:42:46;;;;;;;;;;;;;;;0.18;71.65;98636.59;4845132;29;19924;-69
2023/10/27 12:45:14;;;;;;;;;;;;;;;0.37;71.39;98673.56;4854628;29;19996;-71
2023/10/27 12:47:40;;;;;;;;;;;;;;;0.36;71.82;98676.06;4853478;29;19960;-75
2023/10/27 12:50:12;;;;;;;;;;;;;;;0.33;71.60;98670.94;4837779;29;19931;-69
2023/10/27 12:52:38;;;;;;;;;;;;;;;0.31;71.34;98676.00;4872712;29;19916;-73
2023/10/27 12:55:05;;;;;;;;;;;;;;;0.34;72.14;98672.63;4841416;29;20411;-73
2023/10/27 12:57:38;;;;;;;;;;;;;;;0.44;71.66;98677.06;4841238;29;19932;-74
2023/10/27 13:00:10;;;;;;;;;;;;;;;0.47;71.58;98673.66;4855807;29;19935;-74
2023/10/27 13:02:40;;;;;;;;;;;;;;;0.38;71.14;98675.28;4856496;29;20026;-73
2023/10/27 13:05:12;;;;;;;;;;;;;;;0.33;71.03;98676.06;4828659;29;19928;-72
2023/10/27 13:07:40;;;;;;;;;;;;;;;0.25;71.93;98671.69;4847340;29;19928;-74
2023/10/27 13:10:07;;;;;;;;;;;;;;;0.35;71.82;98672.66;4872848;29;19924;-73
2023/10/27 13:12:37;;;;;;;;;;;;;;;0.24;71.29;98675.06;4872593;29;19931;-73
2023/10/27 13:15:04;;;;;;;;;;;;;;;0.16;71.69;98681.75;4873309;29;19956;-77
2023/10/27 13:17:41;;;;;;;;;;;;;;;0.13;71.76;98669.78;4875124;29;19924;-80
2023/10/27 13:20:09;;;;;;;;;;;;;;;0.21;72.50;98671.63;4873117;29;19940;-72